Terminal Aerodrome Forecast
Issued by NWS Portland, OR

Home | Current Version | Previous Version | Text Only | Print | Product List | Glossary On
Versions: 1 2 3 4 5 6 7 8 9 10 11 12 13 14 15 16 17 18 19 20 21 22 23 24 25 26 27 28 29 30
000
FTUS46 KPQR 270539
TAFTTD
TAF
KTTD 270539Z 2706/2806 VRB03KT P6SM -RA OVC025
     FM271100 VRB03KT P6SM SCT025
     FM271700 09007KT P6SM SCT250
     FM272000 09014G22KT P6SM BKN250
     FM280400 10011KT P6SM OVC250=

USA.gov is the U.S. government's official web portal to all federal, state and local government web resources and services.